createdAt,value
2018-10-21T00:02:15.565Z,7.90
2018-10-21T00:04:44.759Z,7.90
2018-10-21T00:07:13.977Z,7.90
2018-10-21T00:09:43.152Z,7.90
2018-10-21T00:12:12.369Z,7.90
2018-10-21T00:14:41.561Z,7.90
2018-10-21T00:17:10.774Z,7.90
2018-10-21T00:19:39.948Z,7.90
2018-10-21T00:22:09.158Z,7.90
2018-10-21T00:24:38.349Z,8.00
2018-10-21T00:27:07.832Z,8.10
2018-10-21T00:29:37.032Z,8.00
2018-10-21T00:32:06.281Z,8.00
2018-10-21T00:34:35.452Z,8.10
2018-10-21T00:37:05.071Z,8.10
2018-10-21T00:39:34.329Z,8.10
2018-10-21T00:42:03.573Z,8.10
2018-10-21T00:44:32.813Z,8.10
2018-10-21T00:47:02.160Z,8.20
2018-10-21T00:49:31.366Z,8.20
2018-10-21T00:52:00.548Z,8.20
2018-10-21T00:54:29.728Z,8.20
2018-10-21T00:56:58.998Z,8.30
2018-10-21T00:59:28.192Z,8.20
2018-10-21T01:01:57.417Z,8.30
2018-10-21T01:04:26.605Z,8.20
2018-10-21T01:06:55.798Z,8.30
2018-10-21T01:09:25.005Z,8.30
2018-10-21T01:11:54.217Z,8.30
2018-10-21T01:14:23.421Z,8.30
2018-10-21T01:16:52.629Z,8.30
2018-10-21T01:19:21.817Z,8.30
2018-10-21T01:21:51.039Z,8.30
2018-10-21T01:24:20.201Z,8.30
2018-10-21T01:26:49.419Z,8.30
2018-10-21T01:29:18.613Z,8.30
2018-10-21T01:31:47.814Z,8.30
2018-10-21T01:34:17.849Z,8.30
2018-10-21T01:36:47.190Z,8.30
2018-10-21T01:39:16.362Z,8.30
2018-10-21T01:41:45.541Z,8.30
2018-10-21T01:44:14.742Z,8.40
2018-10-21T01:46:43.969Z,8.40
2018-10-21T01:49:13.163Z,8.50
2018-10-21T01:51:42.393Z,8.40
2018-10-21T01:54:11.603Z,8.40
2018-10-21T01:56:40.818Z,8.40
2018-10-21T01:59:10.001Z,8.40
2018-10-21T02:01:39.192Z,8.40
2018-10-21T02:04:08.389Z,8.40
2018-10-21T02:06:37.620Z,8.40
2018-10-21T02:09:07.608Z,8.40
2018-10-21T02:11:36.801Z,8.40
2018-10-21T02:14:06.302Z,8.50
2018-10-21T02:16:35.508Z,8.50
2018-10-21T02:19:04.689Z,8.50
2018-10-21T02:21:33.910Z,8.40
2018-10-21T02:24:03.113Z,8.50
2018-10-21T02:26:32.442Z,8.40
2018-10-21T02:29:01.532Z,8.40
2018-10-21T02:31:30.754Z,8.50
2018-10-21T02:33:59.985Z,8.50
2018-10-21T02:36:29.190Z,8.40
2018-10-21T02:38:58.415Z,8.40
2018-10-21T02:42:00.124Z,8.50
2018-10-21T02:44:29.316Z,8.50
2018-10-21T02:46:58.749Z,8.50
2018-10-21T02:49:27.944Z,8.50
2018-10-21T02:52:02.489Z,8.60
2018-10-21T02:54:32.252Z,8.50
2018-10-21T02:57:01.537Z,8.50
2018-10-21T02:59:30.696Z,8.50
2018-10-21T03:01:59.908Z,8.40
2018-10-21T03:04:29.106Z,8.40
2018-10-21T03:06:58.356Z,8.50
2018-10-21T03:09:28.265Z,8.50
2018-10-21T03:11:57.449Z,8.60
2018-10-21T03:14:26.672Z,8.50
2018-10-21T03:16:55.983Z,8.60
2018-10-21T03:19:25.172Z,8.60
2018-10-21T03:21:54.412Z,8.70
2018-10-21T03:24:23.585Z,8.70
2018-10-21T03:26:52.785Z,8.80
2018-10-21T03:29:22.005Z,8.70
2018-10-21T03:31:51.248Z,8.70
2018-10-21T03:34:20.437Z,8.60
2018-10-21T03:36:49.636Z,8.60
2018-10-21T03:39:18.905Z,8.60
2018-10-21T03:41:48.097Z,8.60
2018-10-21T03:44:17.297Z,8.70
2018-10-21T03:46:46.504Z,8.70
2018-10-21T03:49:15.729Z,8.70
2018-10-21T03:51:44.912Z,8.70
2018-10-21T03:54:14.144Z,8.70
2018-10-21T03:56:43.348Z,8.70
2018-10-21T03:59:12.553Z,8.60
2018-10-21T04:01:41.750Z,8.60
2018-10-21T04:04:10.991Z,8.70
2018-10-21T04:06:40.258Z,8.60
2018-10-21T04:09:09.473Z,8.60
2018-10-21T04:11:38.651Z,8.60
2018-10-21T04:14:07.869Z,8.60
2018-10-21T04:16:37.047Z,8.70
2018-10-21T04:19:06.490Z,8.70
2018-10-21T04:21:35.668Z,8.70
2018-10-21T04:24:04.893Z,8.70
2018-10-21T04:26:34.101Z,8.70
2018-10-21T04:29:03.361Z,8.80
2018-10-21T04:31:32.588Z,8.80
2018-10-21T04:34:01.828Z,8.70
2018-10-21T04:36:32.019Z,8.70
2018-10-21T04:39:44.046Z,8.80
2018-10-21T04:42:13.235Z,8.80
2018-10-21T04:44:42.435Z,8.80
2018-10-21T04:47:11.740Z,8.80
2018-10-21T04:49:40.880Z,8.80
2018-10-21T04:52:10.235Z,8.70
2018-10-21T04:54:39.421Z,8.70
2018-10-21T04:57:08.905Z,8.70
2018-10-21T04:59:39.357Z,8.80
2018-10-21T05:02:08.741Z,8.70
2018-10-21T05:04:37.973Z,8.70
2018-10-21T05:07:07.169Z,8.80
2018-10-21T05:09:36.739Z,8.80
2018-10-21T05:12:06.457Z,8.80
2018-10-21T05:14:35.683Z,8.80
2018-10-21T05:17:04.905Z,8.90
2018-10-21T05:19:34.249Z,8.90
2018-10-21T05:22:03.475Z,9.00
2018-10-21T05:24:32.693Z,9.00
2018-10-21T05:27:01.917Z,8.90
2018-10-21T05:29:31.428Z,8.90
2018-10-21T05:32:00.612Z,9.00
2018-10-21T05:34:29.813Z,9.00
2018-10-21T05:36:59.007Z,9.00
2018-10-21T05:39:28.191Z,9.00
2018-10-21T05:41:57.369Z,9.10
2018-10-21T05:44:26.564Z,9.20
2018-10-21T05:46:55.759Z,9.20
2018-10-21T05:49:24.987Z,9.20
2018-10-21T05:51:54.189Z,9.10
2018-10-21T05:54:23.388Z,9.00
2018-10-21T05:56:52.557Z,8.90
2018-10-21T05:59:21.758Z,8.80
2018-10-21T06:01:50.936Z,8.80
2018-10-21T06:04:20.181Z,8.80
2018-10-21T06:06:49.462Z,8.70
2018-10-21T06:09:18.667Z,8.70
2018-10-21T06:11:47.900Z,8.70
2018-10-21T06:14:17.118Z,8.80
2018-10-21T06:16:52.644Z,8.90
2018-10-21T06:19:27.397Z,8.90
2018-10-21T06:21:56.596Z,8.80
2018-10-21T06:24:25.969Z,8.80
2018-10-21T06:26:55.286Z,8.80
2018-10-21T06:29:24.593Z,8.80
2018-10-21T06:31:53.801Z,8.80
2018-10-21T06:34:23.029Z,8.80
2018-10-21T06:36:52.292Z,8.80
2018-10-21T06:39:21.497Z,8.80
2018-10-21T06:41:50.697Z,8.80
2018-10-21T06:44:19.922Z,8.80
2018-10-21T06:46:49.147Z,8.80
2018-10-21T06:49:18.372Z,8.90
2018-10-21T06:51:47.540Z,9.00
2018-10-21T06:54:16.765Z,9.00
2018-10-21T06:56:46.031Z,9.10
2018-10-21T06:59:15.211Z,9.20
2018-10-21T07:01:44.432Z,9.30
2018-10-21T07:04:13.718Z,9.20
2018-10-21T07:06:42.888Z,9.30
2018-10-21T07:09:12.121Z,9.30
2018-10-21T07:11:41.325Z,9.30
2018-10-21T07:14:10.548Z,9.30
2018-10-21T07:16:39.879Z,9.30
2018-10-21T07:19:09.079Z,9.30
2018-10-21T07:21:38.263Z,9.40
2018-10-21T07:24:07.478Z,9.40
2018-10-21T07:26:36.681Z,9.50
2018-10-21T07:29:05.912Z,9.50
2018-10-21T07:31:35.220Z,9.60
2018-10-21T07:34:04.565Z,9.60
2018-10-21T07:36:33.805Z,9.60
2018-10-21T07:39:03.089Z,9.80
2018-10-21T07:41:32.376Z,9.80
2018-10-21T07:44:01.606Z,9.80
2018-10-21T07:46:30.837Z,9.80
2018-10-21T07:49:00.120Z,9.80
2018-10-21T07:51:29.289Z,9.80
2018-10-21T07:53:58.481Z,9.80
2018-10-21T07:56:27.693Z,9.80
2018-10-21T07:58:56.916Z,9.90
2018-10-21T08:01:26.148Z,10.00
2018-10-21T08:03:55.387Z,10.00
2018-10-21T08:06:41.836Z,10.10
2018-10-21T08:09:12.028Z,10.20
2018-10-21T08:11:41.216Z,10.30
2018-10-21T08:14:10.425Z,10.40
2018-10-21T08:16:39.630Z,10.50
2018-10-21T08:19:08.810Z,10.60
2018-10-21T08:21:38.018Z,10.50
2018-10-21T08:24:07.205Z,10.40
2018-10-21T08:26:36.504Z,10.50
2018-10-21T08:29:05.897Z,10.50
2018-10-21T08:31:35.105Z,10.50
2018-10-21T08:34:05.418Z,10.50
2018-10-21T08:36:34.658Z,10.60
2018-10-21T08:39:04.962Z,10.70
2018-10-21T08:41:34.221Z,10.80
2018-10-21T08:44:03.476Z,10.90
2018-10-21T08:46:32.714Z,11.00
2018-10-21T08:49:02.751Z,11.00
2018-10-21T08:51:32.133Z,11.20
2018-10-21T08:54:01.346Z,11.30
2018-10-21T08:56:30.548Z,11.40
2018-10-21T08:58:59.749Z,11.40
2018-10-21T09:01:28.962Z,11.40
2018-10-21T09:03:58.238Z,11.40
2018-10-21T09:06:27.453Z,11.40
2018-10-21T09:08:56.678Z,11.40
2018-10-21T09:11:25.879Z,11.50
2018-10-21T09:13:55.077Z,11.30
2018-10-21T09:16:24.364Z,11.30
2018-10-21T09:18:53.618Z,11.40
2018-10-21T09:21:23.115Z,11.50
2018-10-21T09:23:52.357Z,11.60
2018-10-21T09:26:21.517Z,11.70
2018-10-21T09:28:50.729Z,11.80
2018-10-21T09:31:19.981Z,11.90
2018-10-21T09:33:49.172Z,12.00
2018-10-21T09:36:18.407Z,12.10
2018-10-21T09:38:47.602Z,12.30
2018-10-21T09:41:16.942Z,12.30
2018-10-21T09:43:46.124Z,12.40
2018-10-21T09:46:15.421Z,12.50
2018-10-21T09:48:44.597Z,12.50
2018-10-21T09:51:13.816Z,12.60
2018-10-21T09:53:43.016Z,12.60
2018-10-21T09:56:12.269Z,12.60
2018-10-21T09:58:41.522Z,12.70
2018-10-21T10:01:15.967Z,12.80
2018-10-21T10:03:45.166Z,12.80
2018-10-21T10:06:14.443Z,12.80
2018-10-21T10:08:43.655Z,12.90
2018-10-21T10:11:12.893Z,12.90
2018-10-21T10:13:42.081Z,12.90
2018-10-21T10:16:11.362Z,12.80
2018-10-21T10:18:40.485Z,12.80
2018-10-21T10:21:09.680Z,12.80
2018-10-21T10:23:38.892Z,12.80
2018-10-21T10:26:08.101Z,12.80
2018-10-21T10:28:37.309Z,12.80
2018-10-21T10:31:06.611Z,12.80
2018-10-21T10:33:35.764Z,12.80
2018-10-21T10:36:05.544Z,12.80
2018-10-21T10:38:34.712Z,12.80
2018-10-21T10:41:03.905Z,12.90
2018-10-21T10:43:33.088Z,13.00
2018-10-21T10:46:02.408Z,13.10
2018-10-21T10:48:31.584Z,13.10
2018-10-21T10:51:00.821Z,13.20
2018-10-21T10:53:30.249Z,13.20
2018-10-21T10:55:59.465Z,13.30
2018-10-21T10:58:28.655Z,13.30
2018-10-21T11:00:57.918Z,13.40
2018-10-21T11:03:27.105Z,13.50
2018-10-21T11:05:56.283Z,13.50
2018-10-21T11:08:25.480Z,13.60
2018-10-21T11:10:54.734Z,13.60
2018-10-21T11:13:24.098Z,13.70
2018-10-21T11:15:53.305Z,13.70
2018-10-21T11:18:22.514Z,13.60
2018-10-21T11:20:51.729Z,13.60
2018-10-21T11:23:20.904Z,13.60
2018-10-21T11:25:50.104Z,13.60
2018-10-21T11:28:19.364Z,13.60
2018-10-21T11:30:48.533Z,13.60
2018-10-21T11:33:17.696Z,13.70
2018-10-21T11:35:46.942Z,13.80
2018-10-21T11:38:16.121Z,13.90
2018-10-21T11:40:45.317Z,14.10
2018-10-21T11:43:14.594Z,14.10
2018-10-21T11:45:43.944Z,14.30
2018-10-21T11:48:13.240Z,14.40
2018-10-21T11:50:42.841Z,14.70
2018-10-21T11:53:12.122Z,14.90
2018-10-21T11:55:42.369Z,15.10
2018-10-21T11:58:13.091Z,15.30
2018-10-21T12:00:43.021Z,15.50
2018-10-21T12:03:12.650Z,15.70
2018-10-21T12:05:42.785Z,15.90
2018-10-21T12:08:12.352Z,16.00
2018-10-21T12:10:41.548Z,16.10
2018-10-21T12:13:10.887Z,16.20
2018-10-21T12:15:40.005Z,16.30
2018-10-21T12:18:09.481Z,16.50
2018-10-21T12:20:39.337Z,16.40
2018-10-21T12:23:08.684Z,16.60
2018-10-21T12:25:37.893Z,16.70
2018-10-21T12:28:08.004Z,16.80
2018-10-21T12:30:37.233Z,16.70
2018-10-21T12:33:07.434Z,16.90
2018-10-21T12:35:36.713Z,17.10
2018-10-21T12:38:06.077Z,17.30
2018-10-21T12:40:35.277Z,17.30
2018-10-21T12:43:04.515Z,17.40
2018-10-21T12:48:15.561Z,17.70
2018-10-21T12:50:44.749Z,18.00
2018-10-21T12:53:14.007Z,17.90
2018-10-21T12:55:49.848Z,17.80
2018-10-21T12:58:19.564Z,17.90
2018-10-21T13:00:48.780Z,18.00
2018-10-21T13:03:18.346Z,18.00
2018-10-21T13:05:47.573Z,18.00
2018-10-21T13:08:16.789Z,18.10
2018-10-21T13:10:46.032Z,18.10
2018-10-21T13:13:15.304Z,18.10
2018-10-21T13:15:44.479Z,18.10
2018-10-21T13:18:13.684Z,18.10
2018-10-21T13:20:42.870Z,18.10
2018-10-21T13:23:12.114Z,18.20
2018-10-21T13:25:41.307Z,18.10
2018-10-21T13:28:10.619Z,18.00
2018-10-21T13:30:39.768Z,18.00
2018-10-21T13:33:09.025Z,18.00
2018-10-21T13:35:38.228Z,18.10
2018-10-21T13:38:07.489Z,18.00
2018-10-21T13:40:36.765Z,18.00
2018-10-21T13:43:06.467Z,18.00
2018-10-21T13:45:35.739Z,17.90
2018-10-21T13:48:05.021Z,17.50
2018-10-21T13:50:34.296Z,17.60
2018-10-21T13:53:03.535Z,17.60
2018-10-21T13:55:32.737Z,17.50
2018-10-21T13:58:01.963Z,17.50
2018-10-21T14:00:31.251Z,17.40
2018-10-21T14:03:00.425Z,17.30
2018-10-21T14:05:29.684Z,16.90
2018-10-21T14:07:58.879Z,16.70
2018-10-21T14:10:28.074Z,16.60
2018-10-21T14:12:57.363Z,16.60
2018-10-21T14:15:26.570Z,16.60
2018-10-21T14:17:55.768Z,16.60
2018-10-21T14:20:24.960Z,16.50
2018-10-21T14:22:54.348Z,16.50
2018-10-21T14:25:23.531Z,16.50
2018-10-21T14:27:52.757Z,16.40
2018-10-21T14:30:21.960Z,16.40
2018-10-21T14:32:51.169Z,16.40
2018-10-21T14:35:20.356Z,16.40
2018-10-21T14:37:49.562Z,16.30
2018-10-21T14:40:18.826Z,16.10
2018-10-21T14:42:48.045Z,16.00
2018-10-21T14:45:17.369Z,16.00
2018-10-21T14:47:46.509Z,16.00
2018-10-21T14:50:15.709Z,15.90
2018-10-21T14:52:44.909Z,15.90
2018-10-21T14:55:14.772Z,15.80
2018-10-21T14:57:43.951Z,15.60
2018-10-21T15:00:14.160Z,15.50
2018-10-21T15:02:43.510Z,15.50
2018-10-21T15:05:13.701Z,15.40
2018-10-21T15:07:44.732Z,15.40
2018-10-21T15:10:14.019Z,15.40
2018-10-21T15:12:43.357Z,15.40
2018-10-21T15:15:12.655Z,15.30
2018-10-21T15:17:41.876Z,15.30
2018-10-21T15:20:12.962Z,15.20
2018-10-21T15:22:42.198Z,15.10
2018-10-21T15:25:12.328Z,15.00
2018-10-21T15:27:42.125Z,15.00
2018-10-21T15:30:11.952Z,14.90
2018-10-21T15:32:41.536Z,14.80
2018-10-21T15:35:10.941Z,14.80
2018-10-21T15:37:40.218Z,14.70
2018-10-21T15:40:10.729Z,14.60
2018-10-21T15:42:39.983Z,14.60
2018-10-21T15:45:11.013Z,14.50
2018-10-21T15:47:40.248Z,14.50
2018-10-21T15:50:09.733Z,14.50
2018-10-21T15:52:38.946Z,14.40
2018-10-21T15:55:09.243Z,14.30
2018-10-21T15:57:38.479Z,14.30
2018-10-21T16:00:10.630Z,14.20
2018-10-21T16:02:39.891Z,14.20
2018-10-21T16:05:10.123Z,14.20
2018-10-21T16:07:39.509Z,14.10
2018-10-21T16:10:09.690Z,14.10
2018-10-21T16:12:39.164Z,14.10
2018-10-21T16:15:13.149Z,14.00
2018-10-21T16:17:42.650Z,13.90
2018-10-21T16:20:11.948Z,13.80
2018-10-21T16:22:42.186Z,13.80
2018-10-21T16:25:12.653Z,13.80
2018-10-21T16:27:42.318Z,13.70
2018-10-21T16:30:13.798Z,13.70
2018-10-21T16:32:43.743Z,13.60
2018-10-21T16:35:13.499Z,13.50
2018-10-21T16:37:42.898Z,13.30
2018-10-21T16:40:13.986Z,13.10
2018-10-21T16:42:43.181Z,13.10
2018-10-21T16:45:13.313Z,13.00
2018-10-21T16:47:42.549Z,13.00
2018-10-21T16:50:14.205Z,13.00
2018-10-21T16:52:44.608Z,12.90
2018-10-21T16:55:14.436Z,12.60
2018-10-21T16:57:43.669Z,12.60
2018-10-21T17:00:16.108Z,12.60
2018-10-21T17:02:45.304Z,12.40
2018-10-21T17:05:14.609Z,12.30
2018-10-21T17:07:43.783Z,12.20
2018-10-21T17:10:13.572Z,12.10
2018-10-21T17:12:42.417Z,11.90
2018-10-21T17:15:12.227Z,11.90
2018-10-21T17:17:42.230Z,11.90
2018-10-21T17:20:13.789Z,11.70
2018-10-21T17:22:43.594Z,11.60
2018-10-21T17:25:13.121Z,11.50
2018-10-21T17:27:42.595Z,11.40
2018-10-21T17:30:15.596Z,11.40
2018-10-21T17:32:45.404Z,11.30
2018-10-21T17:35:16.154Z,11.40
2018-10-21T17:37:45.489Z,11.20
2018-10-21T17:40:14.868Z,11.30
2018-10-21T17:42:44.741Z,11.10
2018-10-21T17:45:14.885Z,11.00
2018-10-21T17:47:44.854Z,11.00
2018-10-21T17:50:15.119Z,11.00
2018-10-21T17:52:44.722Z,10.90
2018-10-21T17:55:14.667Z,10.90
2018-10-21T17:57:43.768Z,10.90
2018-10-21T18:00:14.292Z,10.80
2018-10-21T18:02:43.508Z,10.90
2018-10-21T18:05:13.986Z,10.60
2018-10-21T18:07:43.698Z,10.40
2018-10-21T18:10:13.342Z,10.10
2018-10-21T18:12:42.593Z,10.10
2018-10-21T18:15:12.331Z,10.10
2018-10-21T18:17:43.014Z,9.90
2018-10-21T18:20:13.125Z,9.70
2018-10-21T18:22:42.647Z,9.70
2018-10-21T18:25:11.943Z,9.70
2018-10-21T18:27:41.445Z,9.30
2018-10-21T18:30:16.489Z,9.20
2018-10-21T18:32:45.705Z,9.30
2018-10-21T18:35:16.082Z,9.30
2018-10-21T18:37:45.248Z,9.30
2018-10-21T18:40:14.578Z,9.30
2018-10-21T18:42:43.726Z,9.20
2018-10-21T18:45:14.148Z,9.20
2018-10-21T18:47:43.885Z,9.20
2018-10-21T18:50:14.638Z,9.20
2018-10-21T18:52:43.903Z,9.20
2018-10-21T18:55:13.620Z,9.20
2018-10-21T18:57:42.753Z,9.10
2018-10-21T19:00:16.141Z,9.00
2018-10-21T19:02:45.335Z,8.90
2018-10-21T19:05:15.153Z,8.80
2018-10-21T19:07:44.322Z,8.80
2018-10-21T19:10:14.782Z,8.80
2018-10-21T19:12:43.956Z,8.70
2018-10-21T19:15:13.769Z,8.50
2018-10-21T19:17:43.152Z,8.30
2018-10-21T19:20:14.113Z,8.20
2018-10-21T19:22:43.409Z,8.30
2018-10-21T19:25:14.175Z,8.40
2018-10-21T19:27:43.995Z,8.20
2018-10-21T19:30:13.864Z,8.20
2018-10-21T19:32:43.324Z,8.00
2018-10-21T19:35:13.480Z,8.10
2018-10-21T19:37:42.669Z,7.90
2018-10-21T19:40:13.216Z,7.80
2018-10-21T19:42:43.006Z,7.70
2018-10-21T19:45:13.073Z,7.80
2018-10-21T19:47:42.528Z,7.70
2018-10-21T19:50:12.987Z,7.60
2018-10-21T19:52:42.820Z,7.60
2018-10-21T19:55:12.372Z,7.60
2018-10-21T19:57:41.777Z,7.70
2018-10-21T20:00:14.066Z,7.80
2018-10-21T20:02:43.756Z,7.70
2018-10-21T20:05:12.969Z,7.60
2018-10-21T20:07:42.166Z,7.50
2018-10-21T20:10:13.975Z,7.60
2018-10-21T20:12:43.150Z,7.50
2018-10-21T20:15:13.194Z,7.60
2018-10-21T20:17:42.482Z,7.50
2018-10-21T20:20:12.408Z,7.50
2018-10-21T20:22:41.593Z,7.50
2018-10-21T20:25:11.432Z,7.30
2018-10-21T20:27:40.778Z,7.20
2018-10-21T20:30:11.536Z,7.20
2018-10-21T20:32:40.816Z,7.10
2018-10-21T20:35:11.131Z,7.20
2018-10-21T20:37:40.336Z,7.20
2018-10-21T20:40:10.373Z,7.10
2018-10-21T20:42:39.576Z,7.00
2018-10-21T20:45:10.480Z,7.00
2018-10-21T20:47:39.689Z,7.00
2018-10-21T20:50:08.979Z,7.10
2018-10-21T20:52:38.343Z,6.90
2018-10-21T20:55:07.908Z,6.80
2018-10-21T20:57:37.104Z,6.90
2018-10-21T21:00:06.389Z,7.00
2018-10-21T21:02:35.582Z,6.90
2018-10-21T21:05:05.406Z,6.90
2018-10-21T21:07:34.613Z,7.00
2018-10-21T21:10:03.996Z,6.80
2018-10-21T21:12:33.200Z,6.70
2018-10-21T21:15:02.387Z,6.70
2018-10-21T21:17:31.603Z,6.70
2018-10-21T21:20:00.833Z,6.80
2018-10-21T21:22:30.044Z,6.90
2018-10-21T21:24:59.214Z,6.80
2018-10-21T21:27:28.440Z,6.60
2018-10-21T21:29:57.688Z,6.40
2018-10-21T21:32:26.961Z,6.60
2018-10-21T21:34:56.154Z,6.50
2018-10-21T21:37:25.385Z,6.60
2018-10-21T21:39:54.616Z,6.50
2018-10-21T21:42:23.850Z,6.60
2018-10-21T21:44:53.049Z,6.50
2018-10-21T21:47:22.301Z,6.50
2018-10-21T21:49:51.502Z,6.50
2018-10-21T21:52:20.833Z,6.50
2018-10-21T21:54:50.040Z,6.40
2018-10-21T21:57:19.281Z,6.30
2018-10-21T21:59:48.461Z,6.40
2018-10-21T22:02:17.836Z,6.20
2018-10-21T22:04:47.021Z,6.10
2018-10-21T22:07:16.255Z,6.20
2018-10-21T22:09:45.531Z,6.10
2018-10-21T22:12:14.827Z,6.10
2018-10-21T22:14:44.009Z,6.10
2018-10-21T22:17:13.267Z,6.00
2018-10-21T22:19:42.468Z,6.00
2018-10-21T22:22:11.764Z,6.00
2018-10-21T22:24:40.916Z,6.00
2018-10-21T22:27:10.180Z,6.00
2018-10-21T22:29:39.513Z,6.00
2018-10-21T22:32:08.737Z,6.00
2018-10-21T22:34:37.931Z,6.00
2018-10-21T22:37:07.144Z,5.90
2018-10-21T22:39:36.381Z,5.80
2018-10-21T22:42:05.706Z,5.80
2018-10-21T22:44:35.109Z,5.80
2018-10-21T22:47:04.359Z,5.80
2018-10-21T22:49:33.590Z,5.80
2018-10-21T22:52:02.881Z,5.80
2018-10-21T22:54:32.073Z,5.70
2018-10-21T22:57:01.289Z,5.70
2018-10-21T22:59:30.484Z,5.80
2018-10-21T23:01:59.717Z,5.70
2018-10-21T23:04:28.938Z,5.60
2018-10-21T23:06:58.171Z,5.60
2018-10-21T23:09:27.362Z,5.60
2018-10-21T23:11:56.603Z,5.70
2018-10-21T23:14:25.823Z,5.80
2018-10-21T23:16:55.092Z,5.80
2018-10-21T23:19:42.489Z,5.70
2018-10-21T23:22:11.860Z,5.60
2018-10-21T23:24:41.603Z,5.50
2018-10-21T23:27:11.548Z,5.60
2018-10-21T23:29:41.428Z,5.70
2018-10-21T23:32:10.671Z,5.50
2018-10-21T23:34:39.852Z,5.50
2018-10-21T23:37:09.094Z,5.50
2018-10-21T23:39:38.284Z,5.50
2018-10-21T23:42:07.527Z,5.50
2018-10-21T23:44:36.773Z,5.60
2018-10-21T23:47:06.361Z,5.70
2018-10-21T23:49:35.574Z,5.60
2018-10-21T23:52:05.255Z,5.60
2018-10-21T23:54:34.743Z,5.50
2018-10-21T23:57:06.214Z,5.40
2018-10-21T23:59:36.104Z,5.30
